sensor_id;sensor_type;location;lat;lon;timestamp;temperature;humidity
62339;DHT22;48368;53.406;6.214;2023-07-29T00:01:51;18.20;99.90
62339;DHT22;48368;53.406;6.214;2023-07-29T00:04:19;18.20;99.90
62339;DHT22;48368;53.406;6.214;2023-07-29T00:06:45;18.20;99.90
62339;DHT22;48368;53.406;6.214;2023-07-29T00:09:11;18.20;99.90
62339;DHT22;48368;53.406;6.214;2023-07-29T00:11:38;18.20;99.90
62339;DHT22;48368;53.406;6.214;2023-07-29T00:14:04;18.10;99.90
62339;DHT22;48368;53.406;6.214;2023-07-29T00:16:29;18.10;99.90
62339;DHT22;48368;53.406;6.214;2023-07-29T00:18:55;18.10;99.90
62339;DHT22;48368;53.406;6.214;2023-07-29T00:21:21;18.20;99.90
62339;DHT22;48368;53.406;6.214;2023-07-29T00:23:46;18.10;99.90
62339;DHT22;48368;53.406;6.214;2023-07-29T00:26:12;18.10;99.90
62339;DHT22;48368;53.406;6.214;2023-07-29T00:28:37;18.10;99.90
62339;DHT22;48368;53.406;6.214;2023-07-29T00:31:03;18.20;99.90
62339;DHT22;48368;53.406;6.214;2023-07-29T00:33:29;18.20;99.90
62339;DHT22;48368;53.406;6.214;2023-07-29T00:35:54;18.20;99.90
62339;DHT22;48368;53.406;6.214;2023-07-29T00:38:20;18.20;99.90
62339;DHT22;48368;53.406;6.214;2023-07-29T00:40:46;18.10;99.90
62339;DHT22;48368;53.406;6.214;2023-07-29T00:43:11;18.10;99.90
62339;DHT22;48368;53.406;6.214;2023-07-29T00:45:38;18.10;99.90
62339;DHT22;48368;53.406;6.214;2023-07-29T00:48:04;18.10;99.90
62339;DHT22;48368;53.406;6.214;2023-07-29T00:50:31;18.10;99.90
62339;DHT22;48368;53.406;6.214;2023-07-29T00:52:57;18.10;99.90
62339;DHT22;48368;53.406;6.214;2023-07-29T00:55:24;18.10;99.90
62339;DHT22;48368;53.406;6.214;2023-07-29T00:57:50;18.00;99.90
62339;DHT22;48368;53.406;6.214;2023-07-29T01:00:18;18.10;99.90
62339;DHT22;48368;53.406;6.214;2023-07-29T01:02:44;18.10;99.90
62339;DHT22;48368;53.406;6.214;2023-07-29T01:05:13;18.10;99.90
62339;DHT22;48368;53.406;6.214;2023-07-29T01:07:52;18.00;99.90
62339;DHT22;48368;53.406;6.214;2023-07-29T01:10:32;18.00;99.90
62339;DHT22;48368;53.406;6.214;2023-07-29T01:16:00;17.90;99.90
62339;DHT22;48368;53.406;6.214;2023-07-29T01:18:31;18.00;99.90
62339;DHT22;48368;53.406;6.214;2023-07-29T01:21:03;17.90;99.90
62339;DHT22;48368;53.406;6.214;2023-07-29T01:23:31;17.90;99.90
62339;DHT22;48368;53.406;6.214;2023-07-29T01:25:56;17.90;99.90
62339;DHT22;48368;53.406;6.214;2023-07-29T01:28:23;17.90;99.90
62339;DHT22;48368;53.406;6.214;2023-07-29T01:30:50;17.80;99.90
62339;DHT22;48368;53.406;6.214;2023-07-29T01:33:23;17.80;99.90
62339;DHT22;48368;53.406;6.214;2023-07-29T01:35:57;17.80;99.90
62339;DHT22;48368;53.406;6.214;2023-07-29T01:38:35;17.80;99.90
62339;DHT22;48368;53.406;6.214;2023-07-29T01:41:02;17.70;99.90
62339;DHT22;48368;53.406;6.214;2023-07-29T01:43:29;17.70;99.90
62339;DHT22;48368;53.406;6.214;2023-07-29T01:45:55;17.80;99.90
62339;DHT22;48368;53.406;6.214;2023-07-29T01:48:21;17.80;99.90
62339;DHT22;48368;53.406;6.214;2023-07-29T01:50:47;17.80;99.90
62339;DHT22;48368;53.406;6.214;2023-07-29T01:53:12;17.80;99.90
62339;DHT22;48368;53.406;6.214;2023-07-29T01:55:39;17.80;99.90
62339;DHT22;48368;53.406;6.214;2023-07-29T01:58:04;17.70;99.90
62339;DHT22;48368;53.406;6.214;2023-07-29T02:00:31;17.80;99.90
62339;DHT22;48368;53.406;6.214;2023-07-29T02:02:57;17.80;99.90
62339;DHT22;48368;53.406;6.214;2023-07-29T02:05:23;17.70;99.90
62339;DHT22;48368;53.406;6.214;2023-07-29T02:07:48;17.70;99.90
62339;DHT22;48368;53.406;6.214;2023-07-29T02:10:14;17.70;99.90
62339;DHT22;48368;53.406;6.214;2023-07-29T02:12:40;17.70;99.90
62339;DHT22;48368;53.406;6.214;2023-07-29T02:15:06;17.60;99.90
62339;DHT22;48368;53.406;6.214;2023-07-29T02:17:32;17.60;99.90
62339;DHT22;48368;53.406;6.214;2023-07-29T02:19:58;17.70;99.90
62339;DHT22;48368;53.406;6.214;2023-07-29T02:22:23;17.60;99.90
62339;DHT22;48368;53.406;6.214;2023-07-29T02:24:49;17.60;99.90
62339;DHT22;48368;53.406;6.214;2023-07-29T02:27:14;17.50;99.90
62339;DHT22;48368;53.406;6.214;2023-07-29T02:29:40;17.50;99.90
62339;DHT22;48368;53.406;6.214;2023-07-29T02:32:06;17.50;99.90
62339;DHT22;48368;53.406;6.214;2023-07-29T02:34:31;17.50;99.90
62339;DHT22;48368;53.406;6.214;2023-07-29T02:36:59;17.50;99.90
62339;DHT22;48368;53.406;6.214;2023-07-29T02:39:25;17.50;99.90
62339;DHT22;48368;53.406;6.214;2023-07-29T02:41:51;17.50;99.90
62339;DHT22;48368;53.406;6.214;2023-07-29T02:44:19;17.50;99.90
62339;DHT22;48368;53.406;6.214;2023-07-29T02:46:48;17.50;99.90
62339;DHT22;48368;53.406;6.214;2023-07-29T02:49:13;17.50;99.90
62339;DHT22;48368;53.406;6.214;2023-07-29T02:51:39;17.50;99.90
62339;DHT22;48368;53.406;6.214;2023-07-29T02:54:05;17.50;99.90
62339;DHT22;48368;53.406;6.214;2023-07-29T02:56:30;17.50;99.90
62339;DHT22;48368;53.406;6.214;2023-07-29T02:58:56;17.50;99.90
62339;DHT22;48368;53.406;6.214;2023-07-29T03:01:23;17.50;99.90
62339;DHT22;48368;53.406;6.214;2023-07-29T03:03:53;17.60;99.90
62339;DHT22;48368;53.406;6.214;2023-07-29T03:06:18;17.50;99.90
62339;DHT22;48368;53.406;6.214;2023-07-29T03:08:44;17.50;99.90
62339;DHT22;48368;53.406;6.214;2023-07-29T03:11:12;17.50;99.90
62339;DHT22;48368;53.406;6.214;2023-07-29T03:13:38;17.50;99.90
62339;DHT22;48368;53.406;6.214;2023-07-29T03:16:15;17.50;99.90
62339;DHT22;48368;53.406;6.214;2023-07-29T03:18:42;17.50;99.90
62339;DHT22;48368;53.406;6.214;2023-07-29T03:21:09;17.40;99.90
62339;DHT22;48368;53.406;6.214;2023-07-29T03:23:35;17.50;99.90
62339;DHT22;48368;53.406;6.214;2023-07-29T03:26:02;17.50;99.90
62339;DHT22;48368;53.406;6.214;2023-07-29T03:28:32;17.50;99.90
62339;DHT22;48368;53.406;6.214;2023-07-29T03:30:58;17.40;99.90
62339;DHT22;48368;53.406;6.214;2023-07-29T03:33:25;17.40;99.90
62339;DHT22;48368;53.406;6.214;2023-07-29T03:35:51;17.40;99.90
62339;DHT22;48368;53.406;6.214;2023-07-29T03:38:17;17.30;99.90
62339;DHT22;48368;53.406;6.214;2023-07-29T03:40:42;17.30;99.90
62339;DHT22;48368;53.406;6.214;2023-07-29T03:43:08;17.40;99.90
62339;DHT22;48368;53.406;6.214;2023-07-29T03:45:35;17.30;99.90
62339;DHT22;48368;53.406;6.214;2023-07-29T03:48:01;17.30;99.90
62339;DHT22;48368;53.406;6.214;2023-07-29T03:50:28;17.30;99.90
62339;DHT22;48368;53.406;6.214;2023-07-29T03:52:54;17.30;99.90
62339;DHT22;48368;53.406;6.214;2023-07-29T03:55:20;17.20;99.90
62339;DHT22;48368;53.406;6.214;2023-07-29T03:57:49;17.20;99.90
62339;DHT22;48368;53.406;6.214;2023-07-29T04:00:15;17.20;99.90
62339;DHT22;48368;53.406;6.214;2023-07-29T04:02:49;17.20;99.90
62339;DHT22;48368;53.406;6.214;2023-07-29T04:05:15;17.10;99.90
62339;DHT22;48368;53.406;6.214;2023-07-29T04:07:43;17.10;99.90
62339;DHT22;48368;53.406;6.214;2023-07-29T04:10:12;17.10;99.90
62339;DHT22;48368;53.406;6.214;2023-07-29T04:12:38;17.10;99.90
62339;DHT22;48368;53.406;6.214;2023-07-29T04:15:04;17.00;99.90
62339;DHT22;48368;53.406;6.214;2023-07-29T04:17:38;17.10;99.90
62339;DHT22;48368;53.406;6.214;2023-07-29T04:20:04;17.10;99.90
62339;DHT22;48368;53.406;6.214;2023-07-29T04:22:30;17.10;99.90
62339;DHT22;48368;53.406;6.214;2023-07-29T04:24:56;17.00;99.90
62339;DHT22;48368;53.406;6.214;2023-07-29T04:27:38;17.10;99.90
62339;DHT22;48368;53.406;6.214;2023-07-29T04:30:07;17.00;99.90
62339;DHT22;48368;53.406;6.214;2023-07-29T04:32:45;17.10;99.90
62339;DHT22;48368;53.406;6.214;2023-07-29T04:35:13;17.10;99.90
62339;DHT22;48368;53.406;6.214;2023-07-29T04:37:40;17.10;99.90
62339;DHT22;48368;53.406;6.214;2023-07-29T04:40:06;17.10;99.90
62339;DHT22;48368;53.406;6.214;2023-07-29T04:42:36;17.10;99.90
62339;DHT22;48368;53.406;6.214;2023-07-29T04:45:02;17.10;99.90
62339;DHT22;48368;53.406;6.214;2023-07-29T04:47:28;17.20;99.90
62339;DHT22;48368;53.406;6.214;2023-07-29T04:49:54;17.20;99.90
62339;DHT22;48368;53.406;6.214;2023-07-29T04:52:19;17.30;99.90
62339;DHT22;48368;53.406;6.214;2023-07-29T04:54:48;17.30;99.90
62339;DHT22;48368;53.406;6.214;2023-07-29T04:57:13;17.30;99.90
62339;DHT22;48368;53.406;6.214;2023-07-29T04:59:40;17.30;99.90
62339;DHT22;48368;53.406;6.214;2023-07-29T05:02:05;17.30;99.90
62339;DHT22;48368;53.406;6.214;2023-07-29T05:04:31;17.30;99.90
62339;DHT22;48368;53.406;6.214;2023-07-29T05:06:57;17.30;99.90
62339;DHT22;48368;53.406;6.214;2023-07-29T05:09:23;17.20;99.90
62339;DHT22;48368;53.406;6.214;2023-07-29T05:11:49;17.20;99.90
62339;DHT22;48368;53.406;6.214;2023-07-29T05:14:16;17.20;99.90
62339;DHT22;48368;53.406;6.214;2023-07-29T05:16:42;17.20;99.90
62339;DHT22;48368;53.406;6.214;2023-07-29T05:19:08;17.20;99.90
62339;DHT22;48368;53.406;6.214;2023-07-29T05:21:33;17.20;99.90
62339;DHT22;48368;53.406;6.214;2023-07-29T05:23:59;17.20;99.90
62339;DHT22;48368;53.406;6.214;2023-07-29T05:26:25;17.20;99.90
62339;DHT22;48368;53.406;6.214;2023-07-29T05:28:51;17.20;99.90
62339;DHT22;48368;53.406;6.214;2023-07-29T05:31:16;17.20;99.90
62339;DHT22;48368;53.406;6.214;2023-07-29T05:33:43;17.20;99.90
62339;DHT22;48368;53.406;6.214;2023-07-29T05:36:09;17.20;99.90
62339;DHT22;48368;53.406;6.214;2023-07-29T05:38:34;17.20;99.90
62339;DHT22;48368;53.406;6.214;2023-07-29T05:41:07;17.30;99.90
62339;DHT22;48368;53.406;6.214;2023-07-29T05:43:33;17.30;99.90
62339;DHT22;48368;53.406;6.214;2023-07-29T05:45:58;17.30;99.90
62339;DHT22;48368;53.406;6.214;2023-07-29T05:48:24;17.20;99.90
62339;DHT22;48368;53.406;6.214;2023-07-29T05:50:49;17.30;99.90
62339;DHT22;48368;53.406;6.214;2023-07-29T05:53:15;17.30;99.90
62339;DHT22;48368;53.406;6.214;2023-07-29T05:55:41;17.30;99.90
62339;DHT22;48368;53.406;6.214;2023-07-29T05:58:07;17.30;99.90
62339;DHT22;48368;53.406;6.214;2023-07-29T06:00:34;17.30;99.90
62339;DHT22;48368;53.406;6.214;2023-07-29T06:03:00;17.30;99.90
62339;DHT22;48368;53.406;6.214;2023-07-29T06:05:25;17.30;99.90
62339;DHT22;48368;53.406;6.214;2023-07-29T06:07:51;17.40;99.90
62339;DHT22;48368;53.406;6.214;2023-07-29T06:10:17;17.40;99.90
62339;DHT22;48368;53.406;6.214;2023-07-29T06:12:45;17.40;99.90
62339;DHT22;48368;53.406;6.214;2023-07-29T06:15:14;17.40;99.90
62339;DHT22;48368;53.406;6.214;2023-07-29T06:17:40;17.50;99.90
62339;DHT22;48368;53.406;6.214;2023-07-29T06:20:06;17.50;99.90
62339;DHT22;48368;53.406;6.214;2023-07-29T06:22:38;17.50;99.90
62339;DHT22;48368;53.406;6.214;2023-07-29T06:25:04;17.50;99.90
62339;DHT22;48368;53.406;6.214;2023-07-29T06:27:29;17.50;99.90
62339;DHT22;48368;53.406;6.214;2023-07-29T06:29:55;17.70;99.90
62339;DHT22;48368;53.406;6.214;2023-07-29T06:32:20;17.90;99.90
62339;DHT22;48368;53.406;6.214;2023-07-29T06:34:46;18.10;99.90
62339;DHT22;48368;53.406;6.214;2023-07-29T06:37:12;18.30;99.90
62339;DHT22;48368;53.406;6.214;2023-07-29T06:39:37;18.50;99.90
62339;DHT22;48368;53.406;6.214;2023-07-29T06:42:03;18.60;99.90
62339;DHT22;48368;53.406;6.214;2023-07-29T06:44:29;18.70;99.90
62339;DHT22;48368;53.406;6.214;2023-07-29T06:46:54;18.70;99.90
62339;DHT22;48368;53.406;6.214;2023-07-29T06:49:20;18.70;99.90
62339;DHT22;48368;53.406;6.214;2023-07-29T06:51:45;18.60;99.90
62339;DHT22;48368;53.406;6.214;2023-07-29T06:54:11;18.60;99.90
62339;DHT22;48368;53.406;6.214;2023-07-29T06:56:37;18.60;99.90
62339;DHT22;48368;53.406;6.214;2023-07-29T06:59:02;18.60;99.90
62339;DHT22;48368;53.406;6.214;2023-07-29T07:01:28;18.70;99.90
62339;DHT22;48368;53.406;6.214;2023-07-29T07:03:53;18.70;99.90
62339;DHT22;48368;53.406;6.214;2023-07-29T07:06:21;18.80;99.90
62339;DHT22;48368;53.406;6.214;2023-07-29T07:08:47;19.00;99.90
62339;DHT22;48368;53.406;6.214;2023-07-29T07:11:13;19.10;99.90
62339;DHT22;48368;53.406;6.214;2023-07-29T07:13:38;19.10;99.90
62339;DHT22;48368;53.406;6.214;2023-07-29T07:16:04;19.20;99.90
62339;DHT22;48368;53.406;6.214;2023-07-29T07:18:30;19.20;99.90
62339;DHT22;48368;53.406;6.214;2023-07-29T07:20:55;19.20;99.90
62339;DHT22;48368;53.406;6.214;2023-07-29T07:23:21;19.20;99.90
62339;DHT22;48368;53.406;6.214;2023-07-29T07:25:46;19.20;99.90
62339;DHT22;48368;53.406;6.214;2023-07-29T07:28:12;19.10;99.90
62339;DHT22;48368;53.406;6.214;2023-07-29T07:30:41;19.10;99.90
62339;DHT22;48368;53.406;6.214;2023-07-29T07:33:07;19.10;99.90
62339;DHT22;48368;53.406;6.214;2023-07-29T07:35:33;19.10;99.90
62339;DHT22;48368;53.406;6.214;2023-07-29T07:37:58;19.10;99.90
62339;DHT22;48368;53.406;6.214;2023-07-29T07:40:27;19.10;99.90
62339;DHT22;48368;53.406;6.214;2023-07-29T07:42:52;19.20;99.90
62339;DHT22;48368;53.406;6.214;2023-07-29T07:45:18;19.20;99.90
62339;DHT22;48368;53.406;6.214;2023-07-29T07:47:44;19.40;99.90
62339;DHT22;48368;53.406;6.214;2023-07-29T07:50:09;19.40;99.90
62339;DHT22;48368;53.406;6.214;2023-07-29T07:52:35;19.40;99.90
62339;DHT22;48368;53.406;6.214;2023-07-29T07:55:01;19.50;99.90
62339;DHT22;48368;53.406;6.214;2023-07-29T07:57:27;19.50;99.90
62339;DHT22;48368;53.406;6.214;2023-07-29T07:59:53;19.70;99.90
62339;DHT22;48368;53.406;6.214;2023-07-29T08:02:19;19.60;99.90
62339;DHT22;48368;53.406;6.214;2023-07-29T08:04:45;19.70;99.90
62339;DHT22;48368;53.406;6.214;2023-07-29T08:07:11;19.80;99.90
62339;DHT22;48368;53.406;6.214;2023-07-29T08:09:37;19.70;99.90
62339;DHT22;48368;53.406;6.214;2023-07-29T08:12:03;19.60;99.90
62339;DHT22;48368;53.406;6.214;2023-07-29T08:14:28;19.60;99.90
62339;DHT22;48368;53.406;6.214;2023-07-29T08:16:57;19.70;99.90
62339;DHT22;48368;53.406;6.214;2023-07-29T08:19:25;19.80;99.90
62339;DHT22;48368;53.406;6.214;2023-07-29T08:21:52;19.80;99.90
62339;DHT22;48368;53.406;6.214;2023-07-29T08:24:23;19.80;99.90
62339;DHT22;48368;53.406;6.214;2023-07-29T08:26:48;19.80;99.90
62339;DHT22;48368;53.406;6.214;2023-07-29T08:29:14;19.80;99.90
62339;DHT22;48368;53.406;6.214;2023-07-29T08:31:39;19.80;99.90
62339;DHT22;48368;53.406;6.214;2023-07-29T08:34:05;19.80;99.90
62339;DHT22;48368;53.406;6.214;2023-07-29T08:36:31;20.00;99.90
62339;DHT22;48368;53.406;6.214;2023-07-29T08:38:56;20.10;99.90
62339;DHT22;48368;53.406;6.214;2023-07-29T08:41:31;20.20;99.90
62339;DHT22;48368;53.406;6.214;2023-07-29T08:44:06;20.30;99.90
62339;DHT22;48368;53.406;6.214;2023-07-29T08:46:34;20.60;99.90
62339;DHT22;48368;53.406;6.214;2023-07-29T08:49:01;20.70;99.90
62339;DHT22;48368;53.406;6.214;2023-07-29T08:51:49;20.70;99.90
62339;DHT22;48368;53.406;6.214;2023-07-29T08:54:17;20.80;99.90
62339;DHT22;48368;53.406;6.214;2023-07-29T08:56:50;20.70;99.90
62339;DHT22;48368;53.406;6.214;2023-07-29T08:59:26;20.70;99.90
62339;DHT22;48368;53.406;6.214;2023-07-29T09:02:12;20.60;99.90
62339;DHT22;48368;53.406;6.214;2023-07-29T09:04:38;20.50;99.90
62339;DHT22;48368;53.406;6.214;2023-07-29T09:07:05;20.50;99.90
62339;DHT22;48368;53.406;6.214;2023-07-29T09:09:34;20.60;99.90
62339;DHT22;48368;53.406;6.214;2023-07-29T09:12:08;20.90;99.90
62339;DHT22;48368;53.406;6.214;2023-07-29T09:14:36;21.00;99.90
62339;DHT22;48368;53.406;6.214;2023-07-29T09:17:10;21.10;99.90
62339;DHT22;48368;53.406;6.214;2023-07-29T09:19:36;21.10;99.90
62339;DHT22;48368;53.406;6.214;2023-07-29T09:22:01;21.20;99.90
62339;DHT22;48368;53.406;6.214;2023-07-29T09:24:31;21.30;99.90
62339;DHT22;48368;53.406;6.214;2023-07-29T09:27:07;21.50;99.90
62339;DHT22;48368;53.406;6.214;2023-07-29T09:29:35;21.50;99.90
62339;DHT22;48368;53.406;6.214;2023-07-29T09:32:26;21.50;99.90
62339;DHT22;48368;53.406;6.214;2023-07-29T09:34:52;21.40;99.90
62339;DHT22;48368;53.406;6.214;2023-07-29T09:37:22;21.30;99.90
62339;DHT22;48368;53.406;6.214;2023-07-29T09:39:49;21.30;99.90
62339;DHT22;48368;53.406;6.214;2023-07-29T09:42:33;21.20;99.90
62339;DHT22;48368;53.406;6.214;2023-07-29T09:44:59;21.20;99.90
62339;DHT22;48368;53.406;6.214;2023-07-29T09:47:25;21.20;99.90
62339;DHT22;48368;53.406;6.214;2023-07-29T09:49:52;21.20;99.90
62339;DHT22;48368;53.406;6.214;2023-07-29T09:52:22;21.20;99.90
62339;DHT22;48368;53.406;6.214;2023-07-29T09:54:48;21.20;99.90
62339;DHT22;48368;53.406;6.214;2023-07-29T09:57:15;21.20;99.90
62339;DHT22;48368;53.406;6.214;2023-07-29T09:59:41;21.20;99.90
62339;DHT22;48368;53.406;6.214;2023-07-29T10:02:15;21.20;99.90
62339;DHT22;48368;53.406;6.214;2023-07-29T10:04:42;21.20;99.90
62339;DHT22;48368;53.406;6.214;2023-07-29T10:07:10;21.30;99.90
62339;DHT22;48368;53.406;6.214;2023-07-29T10:09:37;21.40;99.90
62339;DHT22;48368;53.406;6.214;2023-07-29T10:12:06;21.40;99.90
62339;DHT22;48368;53.406;6.214;2023-07-29T10:14:33;21.50;99.90
62339;DHT22;48368;53.406;6.214;2023-07-29T10:17:00;21.60;99.90
62339;DHT22;48368;53.406;6.214;2023-07-29T10:19:26;21.80;99.90
62339;DHT22;48368;53.406;6.214;2023-07-29T10:21:52;21.70;99.90
62339;DHT22;48368;53.406;6.214;2023-07-29T10:24:24;21.70;99.90
62339;DHT22;48368;53.406;6.214;2023-07-29T10:26:59;21.80;99.90
62339;DHT22;48368;53.406;6.214;2023-07-29T10:29:29;21.80;99.90
62339;DHT22;48368;53.406;6.214;2023-07-29T10:31:57;21.80;99.90
62339;DHT22;48368;53.406;6.214;2023-07-29T10:34:24;21.70;99.90
62339;DHT22;48368;53.406;6.214;2023-07-29T10:36:50;21.60;99.90
62339;DHT22;48368;53.406;6.214;2023-07-29T10:39:17;21.50;99.90
62339;DHT22;48368;53.406;6.214;2023-07-29T10:41:57;21.30;99.90
62339;DHT22;48368;53.406;6.214;2023-07-29T10:44:48;21.30;99.90
62339;DHT22;48368;53.406;6.214;2023-07-29T10:47:23;21.10;99.90
62339;DHT22;48368;53.406;6.214;2023-07-29T10:49:59;21.20;99.90
62339;DHT22;48368;53.406;6.214;2023-07-29T10:55:03;21.40;99.90
62339;DHT22;48368;53.406;6.214;2023-07-29T10:57:47;21.40;99.90
62339;DHT22;48368;53.406;6.214;2023-07-29T11:00:19;21.10;99.90
62339;DHT22;48368;53.406;6.214;2023-07-29T11:03:21;21.00;99.90
62339;DHT22;48368;53.406;6.214;2023-07-29T11:05:54;20.50;99.90
62339;DHT22;48368;53.406;6.214;2023-07-29T11:08:49;20.40;99.90
62339;DHT22;48368;53.406;6.214;2023-07-29T11:11:15;20.40;99.90
62339;DHT22;48368;53.406;6.214;2023-07-29T11:13:41;20.40;99.90
62339;DHT22;48368;53.406;6.214;2023-07-29T11:16:10;20.60;99.90
62339;DHT22;48368;53.406;6.214;2023-07-29T11:18:36;20.70;99.90
62339;DHT22;48368;53.406;6.214;2023-07-29T11:21:03;20.80;99.90
62339;DHT22;48368;53.406;6.214;2023-07-29T11:23:33;20.90;99.90
62339;DHT22;48368;53.406;6.214;2023-07-29T11:26:01;21.20;99.90
62339;DHT22;48368;53.406;6.214;2023-07-29T11:28:28;21.40;99.90
62339;DHT22;48368;53.406;6.214;2023-07-29T11:30:57;21.50;99.90
62339;DHT22;48368;53.406;6.214;2023-07-29T11:33:25;21.20;99.90
62339;DHT22;48368;53.406;6.214;2023-07-29T11:35:52;21.00;99.90
62339;DHT22;48368;53.406;6.214;2023-07-29T11:38:19;20.80;99.90
62339;DHT22;48368;53.406;6.214;2023-07-29T11:41:01;20.80;99.90
62339;DHT22;48368;53.406;6.214;2023-07-29T11:43:35;20.50;99.90
62339;DHT22;48368;53.406;6.214;2023-07-29T11:46:01;20.20;99.90
62339;DHT22;48368;53.406;6.214;2023-07-29T11:48:30;20.00;99.90
62339;DHT22;48368;53.406;6.214;2023-07-29T11:50:56;19.80;99.90
62339;DHT22;48368;53.406;6.214;2023-07-29T11:53:25;19.80;99.90
62339;DHT22;48368;53.406;6.214;2023-07-29T11:55:51;19.90;99.90
62339;DHT22;48368;53.406;6.214;2023-07-29T11:58:18;19.90;99.90
62339;DHT22;48368;53.406;6.214;2023-07-29T12:00:44;19.70;99.90
62339;DHT22;48368;53.406;6.214;2023-07-29T12:03:10;19.80;99.90
62339;DHT22;48368;53.406;6.214;2023-07-29T12:05:37;20.00;99.90
62339;DHT22;48368;53.406;6.214;2023-07-29T12:08:03;20.10;99.90
62339;DHT22;48368;53.406;6.214;2023-07-29T12:10:29;20.40;99.90
62339;DHT22;48368;53.406;6.214;2023-07-29T12:12:56;20.60;99.90
62339;DHT22;48368;53.406;6.214;2023-07-29T12:15:27;20.80;99.90
62339;DHT22;48368;53.406;6.214;2023-07-29T12:17:57;20.80;99.90
62339;DHT22;48368;53.406;6.214;2023-07-29T12:20:23;21.00;99.90
62339;DHT22;48368;53.406;6.214;2023-07-29T12:22:56;21.00;99.90
62339;DHT22;48368;53.406;6.214;2023-07-29T12:25:22;21.10;99.90
62339;DHT22;48368;53.406;6.214;2023-07-29T12:28:05;20.90;99.90
62339;DHT22;48368;53.406;6.214;2023-07-29T12:30:32;20.70;99.90
62339;DHT22;48368;53.406;6.214;2023-07-29T12:32:57;20.60;99.90
62339;DHT22;48368;53.406;6.214;2023-07-29T12:35:24;20.40;99.90
62339;DHT22;48368;53.406;6.214;2023-07-29T12:37:59;20.40;99.90
62339;DHT22;48368;53.406;6.214;2023-07-29T12:40:26;20.30;99.90
62339;DHT22;48368;53.406;6.214;2023-07-29T12:42:52;20.20;99.90
62339;DHT22;48368;53.406;6.214;2023-07-29T12:45:18;20.30;99.90
62339;DHT22;48368;53.406;6.214;2023-07-29T12:47:44;20.30;99.90
62339;DHT22;48368;53.406;6.214;2023-07-29T12:50:10;20.30;99.90
62339;DHT22;48368;53.406;6.214;2023-07-29T12:52:36;20.30;99.90
62339;DHT22;48368;53.406;6.214;2023-07-29T12:55:02;20.40;99.90
62339;DHT22;48368;53.406;6.214;2023-07-29T12:57:30;20.50;99.90
62339;DHT22;48368;53.406;6.214;2023-07-29T12:59:56;20.50;99.90
62339;DHT22;48368;53.406;6.214;2023-07-29T13:02:22;20.70;99.90
62339;DHT22;48368;53.406;6.214;2023-07-29T13:04:47;20.90;99.90
62339;DHT22;48368;53.406;6.214;2023-07-29T13:07:13;21.00;99.90
62339;DHT22;48368;53.406;6.214;2023-07-29T13:09:38;21.00;99.90
62339;DHT22;48368;53.406;6.214;2023-07-29T13:12:04;21.20;99.90
62339;DHT22;48368;53.406;6.214;2023-07-29T13:14:31;21.20;99.90
62339;DHT22;48368;53.406;6.214;2023-07-29T13:16:56;21.20;99.90
62339;DHT22;48368;53.406;6.214;2023-07-29T13:19:22;21.20;99.90
62339;DHT22;48368;53.406;6.214;2023-07-29T13:21:48;21.30;99.90
62339;DHT22;48368;53.406;6.214;2023-07-29T13:24:13;21.40;99.90
62339;DHT22;48368;53.406;6.214;2023-07-29T13:26:39;21.50;99.90
62339;DHT22;48368;53.406;6.214;2023-07-29T13:29:04;21.80;99.90
62339;DHT22;48368;53.406;6.214;2023-07-29T13:31:30;21.70;99.90
62339;DHT22;48368;53.406;6.214;2023-07-29T13:33:56;21.60;99.90
62339;DHT22;48368;53.406;6.214;2023-07-29T13:36:22;21.40;99.90
62339;DHT22;48368;53.406;6.214;2023-07-29T13:38:47;21.40;99.90
62339;DHT22;48368;53.406;6.214;2023-07-29T13:41:13;21.50;99.90
62339;DHT22;48368;53.406;6.214;2023-07-29T13:43:38;21.60;99.90
62339;DHT22;48368;53.406;6.214;2023-07-29T13:46:04;21.60;99.90
62339;DHT22;48368;53.406;6.214;2023-07-29T13:48:30;21.70;99.90
62339;DHT22;48368;53.406;6.214;2023-07-29T13:50:55;21.70;99.90
62339;DHT22;48368;53.406;6.214;2023-07-29T13:53:21;21.90;99.90
62339;DHT22;48368;53.406;6.214;2023-07-29T13:55:46;22.00;99.90
62339;DHT22;48368;53.406;6.214;2023-07-29T13:58:12;21.90;99.90
62339;DHT22;48368;53.406;6.214;2023-07-29T14:00:38;21.70;99.90
62339;DHT22;48368;53.406;6.214;2023-07-29T14:03:03;21.70;99.90
62339;DHT22;48368;53.406;6.214;2023-07-29T14:05:29;21.60;99.90
62339;DHT22;48368;53.406;6.214;2023-07-29T14:07:57;21.50;99.90
62339;DHT22;48368;53.406;6.214;2023-07-29T14:10:24;21.40;99.90
62339;DHT22;48368;53.406;6.214;2023-07-29T14:12:50;21.30;99.90
62339;DHT22;48368;53.406;6.214;2023-07-29T14:15:15;21.30;99.90
62339;DHT22;48368;53.406;6.214;2023-07-29T14:17:43;21.40;99.90
62339;DHT22;48368;53.406;6.214;2023-07-29T14:20:09;21.30;99.90
62339;DHT22;48368;53.406;6.214;2023-07-29T14:22:36;21.20;99.90
62339;DHT22;48368;53.406;6.214;2023-07-29T14:25:01;21.20;99.90
62339;DHT22;48368;53.406;6.214;2023-07-29T14:27:27;21.30;99.90
62339;DHT22;48368;53.406;6.214;2023-07-29T14:29:53;21.30;99.90
62339;DHT22;48368;53.406;6.214;2023-07-29T14:32:18;21.30;99.90
62339;DHT22;48368;53.406;6.214;2023-07-29T14:34:44;21.20;99.90
62339;DHT22;48368;53.406;6.214;2023-07-29T14:37:09;21.10;99.90
62339;DHT22;48368;53.406;6.214;2023-07-29T14:39:35;21.10;99.90
62339;DHT22;48368;53.406;6.214;2023-07-29T14:42:01;21.00;99.90
62339;DHT22;48368;53.406;6.214;2023-07-29T14:44:26;21.00;99.90
62339;DHT22;48368;53.406;6.214;2023-07-29T14:46:52;21.10;99.90
62339;DHT22;48368;53.406;6.214;2023-07-29T14:49:19;21.20;99.90
62339;DHT22;48368;53.406;6.214;2023-07-29T14:51:44;21.20;99.90
62339;DHT22;48368;53.406;6.214;2023-07-29T14:54:10;21.20;99.90
62339;DHT22;48368;53.406;6.214;2023-07-29T14:56:38;21.10;99.90
62339;DHT22;48368;53.406;6.214;2023-07-29T14:59:04;21.00;99.90
62339;DHT22;48368;53.406;6.214;2023-07-29T15:01:29;21.00;99.90
62339;DHT22;48368;53.406;6.214;2023-07-29T15:03:55;21.00;99.90
62339;DHT22;48368;53.406;6.214;2023-07-29T15:06:20;21.00;99.90
62339;DHT22;48368;53.406;6.214;2023-07-29T15:08:46;21.10;99.90
62339;DHT22;48368;53.406;6.214;2023-07-29T15:11:15;21.20;99.90
62339;DHT22;48368;53.406;6.214;2023-07-29T15:13:41;21.30;99.90
62339;DHT22;48368;53.406;6.214;2023-07-29T15:16:06;21.40;99.90
62339;DHT22;48368;53.406;6.214;2023-07-29T15:18:32;21.40;99.90
62339;DHT22;48368;53.406;6.214;2023-07-29T15:20:59;21.50;99.90
62339;DHT22;48368;53.406;6.214;2023-07-29T15:23:25;21.40;99.90
62339;DHT22;48368;53.406;6.214;2023-07-29T15:25:51;21.40;99.90
62339;DHT22;48368;53.406;6.214;2023-07-29T15:28:16;21.50;99.90
62339;DHT22;48368;53.406;6.214;2023-07-29T15:30:42;21.50;99.90
62339;DHT22;48368;53.406;6.214;2023-07-29T15:33:10;21.40;99.90
62339;DHT22;48368;53.406;6.214;2023-07-29T15:35:44;21.40;99.90
62339;DHT22;48368;53.406;6.214;2023-07-29T15:38:10;21.40;99.90